sensor_id;sensor_type;location;lat;lon;timestamp;temperature;humidity
27188;DHT22;14708;50.872;5.306;2023-03-01T00:02:19;18.90;56.70
27188;DHT22;14708;50.872;5.306;2023-03-01T00:04:57;18.80;56.50
27188;DHT22;14708;50.872;5.306;2023-03-01T00:07:22;18.80;56.50
27188;DHT22;14708;50.872;5.306;2023-03-01T00:09:50;18.80;56.80
27188;DHT22;14708;50.872;5.306;2023-03-01T00:12:16;18.80;56.70
27188;DHT22;14708;50.872;5.306;2023-03-01T00:14:41;18.80;56.50
27188;DHT22;14708;50.872;5.306;2023-03-01T00:17:07;18.80;56.80
27188;DHT22;14708;50.872;5.306;2023-03-01T00:29:45;18.70;56.70
27188;DHT22;14708;50.872;5.306;2023-03-01T00:32:10;18.70;56.60
27188;DHT22;14708;50.872;5.306;2023-03-01T00:34:36;18.70;56.60
27188;DHT22;14708;50.872;5.306;2023-03-01T00:37:01;18.70;56.80
27188;DHT22;14708;50.872;5.306;2023-03-01T00:39:36;18.60;56.70
27188;DHT22;14708;50.872;5.306;2023-03-01T00:45:24;18.60;56.50
27188;DHT22;14708;50.872;5.306;2023-03-01T00:47:50;18.60;56.60
27188;DHT22;14708;50.872;5.306;2023-03-01T00:50:17;18.60;56.60
27188;DHT22;14708;50.872;5.306;2023-03-01T00:52:43;18.60;56.50
27188;DHT22;14708;50.872;5.306;2023-03-01T00:55:09;18.60;56.60
27188;DHT22;14708;50.872;5.306;2023-03-01T01:07:59;18.50;56.70
27188;DHT22;14708;50.872;5.306;2023-03-01T01:10:25;18.50;56.60
27188;DHT22;14708;50.872;5.306;2023-03-01T01:12:50;18.50;56.70
27188;DHT22;14708;50.872;5.306;2023-03-01T01:15:16;18.50;56.60
27188;DHT22;14708;50.872;5.306;2023-03-01T01:17:42;18.50;56.70
27188;DHT22;14708;50.872;5.306;2023-03-01T01:30:31;18.40;56.60
27188;DHT22;14708;50.872;5.306;2023-03-01T01:32:57;18.40;56.40
27188;DHT22;14708;50.872;5.306;2023-03-01T01:35:22;18.40;56.40
27188;DHT22;14708;50.872;5.306;2023-03-01T01:37:48;18.40;56.50
27188;DHT22;14708;50.872;5.306;2023-03-01T01:40:14;18.40;56.40
27188;DHT22;14708;50.872;5.306;2023-03-01T01:42:39;18.40;56.50
27188;DHT22;14708;50.872;5.306;2023-03-01T01:51:51;18.30;56.50
27188;DHT22;14708;50.872;5.306;2023-03-01T01:54:33;18.30;56.50
27188;DHT22;14708;50.872;5.306;2023-03-01T01:57:07;18.30;56.50
27188;DHT22;14708;50.872;5.306;2023-03-01T01:59:34;18.30;56.50
27188;DHT22;14708;50.872;5.306;2023-03-01T02:02:02;18.30;56.60
27188;DHT22;14708;50.872;5.306;2023-03-01T02:04:30;18.30;56.60
27188;DHT22;14708;50.872;5.306;2023-03-01T02:10:18;18.30;56.60
27188;DHT22;14708;50.872;5.306;2023-03-01T02:12:44;18.20;56.60
27188;DHT22;14708;50.872;5.306;2023-03-01T02:15:10;18.20;56.40
27188;DHT22;14708;50.872;5.306;2023-03-01T02:17:35;18.20;56.60
27188;DHT22;14708;50.872;5.306;2023-03-01T02:23:22;18.20;56.60
27188;DHT22;14708;50.872;5.306;2023-03-01T02:28:43;18.20;56.50
27188;DHT22;14708;50.872;5.306;2023-03-01T02:31:18;18.20;56.60
27188;DHT22;14708;50.872;5.306;2023-03-01T02:34:03;18.10;56.40
27188;DHT22;14708;50.872;5.306;2023-03-01T02:36:36;18.10;56.60
27188;DHT22;14708;50.872;5.306;2023-03-01T02:39:04;18.10;56.40
27188;DHT22;14708;50.872;5.306;2023-03-01T02:41:35;18.10;56.50
27188;DHT22;14708;50.872;5.306;2023-03-01T02:44:01;18.10;56.50
27188;DHT22;14708;50.872;5.306;2023-03-01T02:46:27;18.10;56.40
27188;DHT22;14708;50.872;5.306;2023-03-01T02:48:54;18.10;56.50
27188;DHT22;14708;50.872;5.306;2023-03-01T02:56:35;18.00;56.40
27188;DHT22;14708;50.872;5.306;2023-03-01T02:59:02;18.00;56.40
27188;DHT22;14708;50.872;5.306;2023-03-01T03:01:29;18.00;56.40
27188;DHT22;14708;50.872;5.306;2023-03-01T03:04:09;18.00;56.30
27188;DHT22;14708;50.872;5.306;2023-03-01T03:06:35;18.00;56.30
27188;DHT22;14708;50.872;5.306;2023-03-01T03:09:02;18.00;56.30
27188;DHT22;14708;50.872;5.306;2023-03-01T03:21:42;17.90;56.30
27188;DHT22;14708;50.872;5.306;2023-03-01T03:24:08;17.90;56.30
27188;DHT22;14708;50.872;5.306;2023-03-01T03:26:34;17.90;56.40
27188;DHT22;14708;50.872;5.306;2023-03-01T03:29:00;17.90;56.30
27188;DHT22;14708;50.872;5.306;2023-03-01T03:31:26;17.80;56.20
27188;DHT22;14708;50.872;5.306;2023-03-01T03:33:52;17.80;56.20
27188;DHT22;14708;50.872;5.306;2023-03-01T03:36:22;17.90;56.30
27188;DHT22;14708;50.872;5.306;2023-03-01T03:38:48;17.80;56.30
27188;DHT22;14708;50.872;5.306;2023-03-01T03:44:44;17.80;56.20
27188;DHT22;14708;50.872;5.306;2023-03-01T03:47:10;17.80;56.20
27188;DHT22;14708;50.872;5.306;2023-03-01T03:49:35;17.80;56.30
27188;DHT22;14708;50.872;5.306;2023-03-01T03:52:01;17.80;56.30
27188;DHT22;14708;50.872;5.306;2023-03-01T03:54:26;17.70;56.30
27188;DHT22;14708;50.872;5.306;2023-03-01T03:56:52;17.80;56.20
27188;DHT22;14708;50.872;5.306;2023-03-01T03:59:17;17.80;56.30
27188;DHT22;14708;50.872;5.306;2023-03-01T04:01:43;17.80;56.20
27188;DHT22;14708;50.872;5.306;2023-03-01T04:04:10;17.70;56.20
27188;DHT22;14708;50.872;5.306;2023-03-01T04:06:45;17.70;56.20
27188;DHT22;14708;50.872;5.306;2023-03-01T04:09:10;17.70;56.20
27188;DHT22;14708;50.872;5.306;2023-03-01T04:11:36;17.70;56.20
27188;DHT22;14708;50.872;5.306;2023-03-01T04:14:03;17.70;56.20
27188;DHT22;14708;50.872;5.306;2023-03-01T04:16:30;17.70;56.10
27188;DHT22;14708;50.872;5.306;2023-03-01T04:36:28;17.70;56.20
27188;DHT22;14708;50.872;5.306;2023-03-01T04:38:54;17.60;56.00
27188;DHT22;14708;50.872;5.306;2023-03-01T04:41:22;17.60;56.10
27188;DHT22;14708;50.872;5.306;2023-03-01T04:43:47;17.60;56.10
27188;DHT22;14708;50.872;5.306;2023-03-01T04:46:16;17.60;56.10
27188;DHT22;14708;50.872;5.306;2023-03-01T04:48:43;17.60;56.20
27188;DHT22;14708;50.872;5.306;2023-03-01T04:51:09;17.60;56.30
27188;DHT22;14708;50.872;5.306;2023-03-01T04:53:39;17.60;56.30
27188;DHT22;14708;50.872;5.306;2023-03-01T04:56:05;17.60;56.20
27188;DHT22;14708;50.872;5.306;2023-03-01T05:01:53;17.60;56.20
27188;DHT22;14708;50.872;5.306;2023-03-01T05:04:23;17.60;56.10
27188;DHT22;14708;50.872;5.306;2023-03-01T05:06:49;17.60;56.10
27188;DHT22;14708;50.872;5.306;2023-03-01T05:09:15;17.50;56.10
27188;DHT22;14708;50.872;5.306;2023-03-01T05:15:04;17.50;56.00
27188;DHT22;14708;50.872;5.306;2023-03-01T05:17:33;17.60;56.00
27188;DHT22;14708;50.872;5.306;2023-03-01T05:19:59;17.60;55.90
27188;DHT22;14708;50.872;5.306;2023-03-01T05:22:25;17.50;55.90
27188;DHT22;14708;50.872;5.306;2023-03-01T05:24:51;17.50;55.90
27188;DHT22;14708;50.872;5.306;2023-03-01T05:27:16;17.50;55.80
27188;DHT22;14708;50.872;5.306;2023-03-01T05:29:42;17.50;55.80
27188;DHT22;14708;50.872;5.306;2023-03-01T05:32:08;17.50;55.80
27188;DHT22;14708;50.872;5.306;2023-03-01T05:34:35;17.50;55.70
27188;DHT22;14708;50.872;5.306;2023-03-01T05:37:02;17.50;55.70
27188;DHT22;14708;50.872;5.306;2023-03-01T05:39:29;17.50;55.70
27188;DHT22;14708;50.872;5.306;2023-03-01T05:41:57;17.50;55.80
27188;DHT22;14708;50.872;5.306;2023-03-01T05:47:43;17.50;55.70
27188;DHT22;14708;50.872;5.306;2023-03-01T05:50:18;17.50;56.30
27188;DHT22;14708;50.872;5.306;2023-03-01T05:52:52;17.60;55.60
27188;DHT22;14708;50.872;5.306;2023-03-01T05:55:30;17.60;55.50
27188;DHT22;14708;50.872;5.306;2023-03-01T05:58:19;17.60;55.50
27188;DHT22;14708;50.872;5.306;2023-03-01T06:00:46;17.60;55.40
27188;DHT22;14708;50.872;5.306;2023-03-01T06:03:15;17.60;55.30
27188;DHT22;14708;50.872;5.306;2023-03-01T06:05:42;17.60;55.30
27188;DHT22;14708;50.872;5.306;2023-03-01T06:08:09;17.50;55.30
27188;DHT22;14708;50.872;5.306;2023-03-01T06:10:35;17.50;55.40
27188;DHT22;14708;50.872;5.306;2023-03-01T06:13:01;17.50;55.40
27188;DHT22;14708;50.872;5.306;2023-03-01T06:15:27;17.50;55.90
27188;DHT22;14708;50.872;5.306;2023-03-01T06:17:54;17.60;55.20
27188;DHT22;14708;50.872;5.306;2023-03-01T06:20:29;17.60;55.20
27188;DHT22;14708;50.872;5.306;2023-03-01T06:22:56;17.70;55.00
27188;DHT22;14708;50.872;5.306;2023-03-01T06:25:23;17.80;55.10
27188;DHT22;14708;50.872;5.306;2023-03-01T06:27:50;17.80;54.80
27188;DHT22;14708;50.872;5.306;2023-03-01T06:30:19;17.90;54.80
27188;DHT22;14708;50.872;5.306;2023-03-01T06:32:45;18.10;54.40
27188;DHT22;14708;50.872;5.306;2023-03-01T06:39:13;18.40;54.50
27188;DHT22;14708;50.872;5.306;2023-03-01T06:41:41;18.60;54.70
27188;DHT22;14708;50.872;5.306;2023-03-01T06:44:09;18.80;54.50
27188;DHT22;14708;50.872;5.306;2023-03-01T06:46:39;18.90;54.30
27188;DHT22;14708;50.872;5.306;2023-03-01T06:49:04;19.00;54.40
27188;DHT22;14708;50.872;5.306;2023-03-01T06:51:37;19.20;54.10
27188;DHT22;14708;50.872;5.306;2023-03-01T07:00:52;19.50;53.50
27188;DHT22;14708;50.872;5.306;2023-03-01T07:03:18;19.50;53.40
27188;DHT22;14708;50.872;5.306;2023-03-01T07:05:44;19.60;53.40
27188;DHT22;14708;50.872;5.306;2023-03-01T07:08:10;19.60;53.40
27188;DHT22;14708;50.872;5.306;2023-03-01T07:10:36;19.70;53.40
27188;DHT22;14708;50.872;5.306;2023-03-01T07:13:01;19.80;53.20
27188;DHT22;14708;50.872;5.306;2023-03-01T07:15:27;19.80;53.30
27188;DHT22;14708;50.872;5.306;2023-03-01T07:17:53;19.80;53.00
27188;DHT22;14708;50.872;5.306;2023-03-01T07:34:05;19.80;53.50
27188;DHT22;14708;50.872;5.306;2023-03-01T07:36:31;19.80;53.70
27188;DHT22;14708;50.872;5.306;2023-03-01T07:38:56;19.90;52.70
27188;DHT22;14708;50.872;5.306;2023-03-01T07:41:23;19.90;53.30
27188;DHT22;14708;50.872;5.306;2023-03-01T07:43:51;19.80;53.60
27188;DHT22;14708;50.872;5.306;2023-03-01T07:46:17;19.70;53.80
27188;DHT22;14708;50.872;5.306;2023-03-01T07:52:24;19.90;53.80
27188;DHT22;14708;50.872;5.306;2023-03-01T07:54:50;20.10;53.80
27188;DHT22;14708;50.872;5.306;2023-03-01T07:57:16;20.20;53.80
27188;DHT22;14708;50.872;5.306;2023-03-01T07:59:41;20.40;53.50
27188;DHT22;14708;50.872;5.306;2023-03-01T08:02:08;20.40;53.20
27188;DHT22;14708;50.872;5.306;2023-03-01T08:04:34;20.50;53.00
27188;DHT22;14708;50.872;5.306;2023-03-01T08:07:06;20.60;52.90
27188;DHT22;14708;50.872;5.306;2023-03-01T08:09:34;20.70;53.20
27188;DHT22;14708;50.872;5.306;2023-03-01T08:12:07;20.70;52.90
27188;DHT22;14708;50.872;5.306;2023-03-01T08:14:33;20.80;52.90
27188;DHT22;14708;50.872;5.306;2023-03-01T08:16:58;20.80;52.70
27188;DHT22;14708;50.872;5.306;2023-03-01T08:19:24;20.90;52.90
27188;DHT22;14708;50.872;5.306;2023-03-01T08:21:50;20.90;52.50
27188;DHT22;14708;50.872;5.306;2023-03-01T08:24:15;20.90;52.80
27188;DHT22;14708;50.872;5.306;2023-03-01T08:26:41;21.00;52.70
27188;DHT22;14708;50.872;5.306;2023-03-01T08:29:07;21.10;52.50
27188;DHT22;14708;50.872;5.306;2023-03-01T08:31:35;21.10;52.50
27188;DHT22;14708;50.872;5.306;2023-03-01T08:34:07;21.20;52.60
27188;DHT22;14708;50.872;5.306;2023-03-01T08:36:36;21.30;52.90
27188;DHT22;14708;50.872;5.306;2023-03-01T08:39:03;21.30;53.00
27188;DHT22;14708;50.872;5.306;2023-03-01T08:41:29;21.50;53.10
27188;DHT22;14708;50.872;5.306;2023-03-01T08:43:55;21.50;53.10
27188;DHT22;14708;50.872;5.306;2023-03-01T08:46:43;21.60;53.30
27188;DHT22;14708;50.872;5.306;2023-03-01T08:49:16;21.70;53.40
27188;DHT22;14708;50.872;5.306;2023-03-01T08:51:43;21.60;53.50
27188;DHT22;14708;50.872;5.306;2023-03-01T08:54:18;21.60;53.60
27188;DHT22;14708;50.872;5.306;2023-03-01T08:56:44;21.60;53.30
27188;DHT22;14708;50.872;5.306;2023-03-01T08:59:14;21.60;53.50
27188;DHT22;14708;50.872;5.306;2023-03-01T09:01:41;21.50;53.60
27188;DHT22;14708;50.872;5.306;2023-03-01T09:04:09;21.50;53.80
27188;DHT22;14708;50.872;5.306;2023-03-01T09:06:35;21.50;53.30
27188;DHT22;14708;50.872;5.306;2023-03-01T09:09:10;21.40;53.00
27188;DHT22;14708;50.872;5.306;2023-03-01T09:11:37;21.30;53.50
27188;DHT22;14708;50.872;5.306;2023-03-01T09:14:05;21.30;53.90
27188;DHT22;14708;50.872;5.306;2023-03-01T09:16:31;21.30;53.30
27188;DHT22;14708;50.872;5.306;2023-03-01T09:25:50;21.50;54.80
27188;DHT22;14708;50.872;5.306;2023-03-01T09:28:15;21.60;54.90
27188;DHT22;14708;50.872;5.306;2023-03-01T09:30:41;21.60;55.00
27188;DHT22;14708;50.872;5.306;2023-03-01T09:33:07;21.60;55.70
27188;DHT22;14708;50.872;5.306;2023-03-01T09:35:32;21.60;55.60
27188;DHT22;14708;50.872;5.306;2023-03-01T09:37:58;21.60;55.40
27188;DHT22;14708;50.872;5.306;2023-03-01T09:40:26;21.50;55.90
27188;DHT22;14708;50.872;5.306;2023-03-01T09:42:54;21.40;56.00
27188;DHT22;14708;50.872;5.306;2023-03-01T09:45:35;21.40;55.70
27188;DHT22;14708;50.872;5.306;2023-03-01T09:48:03;21.30;55.80
27188;DHT22;14708;50.872;5.306;2023-03-01T09:50:39;21.30;55.60
27188;DHT22;14708;50.872;5.306;2023-03-01T09:53:13;21.20;56.50
27188;DHT22;14708;50.872;5.306;2023-03-01T09:55:55;21.20;55.90
27188;DHT22;14708;50.872;5.306;2023-03-01T10:04:26;21.20;55.00
27188;DHT22;14708;50.872;5.306;2023-03-01T10:26:58;21.40;52.10
27188;DHT22;14708;50.872;5.306;2023-03-01T10:29:37;21.30;50.90
27188;DHT22;14708;50.872;5.306;2023-03-01T10:32:05;21.30;51.40
27188;DHT22;14708;50.872;5.306;2023-03-01T10:34:34;21.40;51.70
27188;DHT22;14708;50.872;5.306;2023-03-01T10:49:13;21.50;48.40
27188;DHT22;14708;50.872;5.306;2023-03-01T10:51:51;21.40;50.60
27188;DHT22;14708;50.872;5.306;2023-03-01T10:54:25;21.30;50.70
27188;DHT22;14708;50.872;5.306;2023-03-01T10:56:55;21.30;51.70
27188;DHT22;14708;50.872;5.306;2023-03-01T11:02:43;21.50;52.90
27188;DHT22;14708;50.872;5.306;2023-03-01T11:07:54;21.70;53.80
27188;DHT22;14708;50.872;5.306;2023-03-01T11:10:27;21.70;54.00
27188;DHT22;14708;50.872;5.306;2023-03-01T11:13:05;21.80;54.20
27188;DHT22;14708;50.872;5.306;2023-03-01T11:15:31;21.90;54.50
27188;DHT22;14708;50.872;5.306;2023-03-01T11:17:57;21.90;54.50
27188;DHT22;14708;50.872;5.306;2023-03-01T11:23:28;21.70;53.00
27188;DHT22;14708;50.872;5.306;2023-03-01T11:26:04;21.80;53.80
27188;DHT22;14708;50.872;5.306;2023-03-01T11:28:32;21.70;53.70
27188;DHT22;14708;50.872;5.306;2023-03-01T11:31:02;21.60;54.30
27188;DHT22;14708;50.872;5.306;2023-03-01T11:33:38;21.50;55.10
27188;DHT22;14708;50.872;5.306;2023-03-01T11:38:41;21.40;54.70
27188;DHT22;14708;50.872;5.306;2023-03-01T11:48:13;21.20;54.80
27188;DHT22;14708;50.872;5.306;2023-03-01T11:50:50;21.10;55.50
27188;DHT22;14708;50.872;5.306;2023-03-01T12:11:43;21.00;55.30
27188;DHT22;14708;50.872;5.306;2023-03-01T12:24:25;20.90;55.30
27188;DHT22;14708;50.872;5.306;2023-03-01T12:29:36;20.80;55.40
27188;DHT22;14708;50.872;5.306;2023-03-01T12:32:27;20.80;55.40
27188;DHT22;14708;50.872;5.306;2023-03-01T12:49:18;21.00;54.20
27188;DHT22;14708;50.872;5.306;2023-03-01T12:52:11;21.00;54.20
27188;DHT22;14708;50.872;5.306;2023-03-01T12:54:38;21.10;54.30
27188;DHT22;14708;50.872;5.306;2023-03-01T12:57:36;21.10;54.30
27188;DHT22;14708;50.872;5.306;2023-03-01T13:08:43;21.40;54.30
27188;DHT22;14708;50.872;5.306;2023-03-01T13:11:20;21.50;54.20
27188;DHT22;14708;50.872;5.306;2023-03-01T13:13:47;21.60;54.00
27188;DHT22;14708;50.872;5.306;2023-03-01T13:25:27;21.70;54.60
27188;DHT22;14708;50.872;5.306;2023-03-01T13:30:57;21.60;54.90
27188;DHT22;14708;50.872;5.306;2023-03-01T13:35:55;21.60;53.90
27188;DHT22;14708;50.872;5.306;2023-03-01T13:41:15;21.60;55.00
27188;DHT22;14708;50.872;5.306;2023-03-01T13:43:43;21.60;55.40
27188;DHT22;14708;50.872;5.306;2023-03-01T13:46:21;21.60;55.50
27188;DHT22;14708;50.872;5.306;2023-03-01T13:48:54;21.60;56.00
27188;DHT22;14708;50.872;5.306;2023-03-01T13:51:25;21.60;56.70
27188;DHT22;14708;50.872;5.306;2023-03-01T13:53:52;21.60;56.90
27188;DHT22;14708;50.872;5.306;2023-03-01T13:56:23;21.70;57.30
27188;DHT22;14708;50.872;5.306;2023-03-01T13:58:53;21.80;57.30
27188;DHT22;14708;50.872;5.306;2023-03-01T14:01:35;21.80;57.80
27188;DHT22;14708;50.872;5.306;2023-03-01T14:16:41;22.20;56.60
27188;DHT22;14708;50.872;5.306;2023-03-01T14:19:25;22.10;57.00
27188;DHT22;14708;50.872;5.306;2023-03-01T14:24:51;22.10;56.90
27188;DHT22;14708;50.872;5.306;2023-03-01T14:43:49;22.00;57.80
27188;DHT22;14708;50.872;5.306;2023-03-01T14:46:25;22.10;57.90
27188;DHT22;14708;50.872;5.306;2023-03-01T14:48:56;22.20;57.90
27188;DHT22;14708;50.872;5.306;2023-03-01T14:51:24;22.20;57.50
27188;DHT22;14708;50.872;5.306;2023-03-01T14:53:50;22.30;57.50
27188;DHT22;14708;50.872;5.306;2023-03-01T14:56:17;22.20;57.50
27188;DHT22;14708;50.872;5.306;2023-03-01T14:58:44;22.20;57.60
27188;DHT22;14708;50.872;5.306;2023-03-01T15:01:14;22.20;57.80
27188;DHT22;14708;50.872;5.306;2023-03-01T15:03:49;22.20;57.80
27188;DHT22;14708;50.872;5.306;2023-03-01T15:23:05;22.20;58.50
27188;DHT22;14708;50.872;5.306;2023-03-01T15:25:32;22.20;58.10
27188;DHT22;14708;50.872;5.306;2023-03-01T15:27:59;22.20;58.10
27188;DHT22;14708;50.872;5.306;2023-03-01T15:30:37;22.30;57.90
27188;DHT22;14708;50.872;5.306;2023-03-01T15:35:54;22.40;58.20
27188;DHT22;14708;50.872;5.306;2023-03-01T15:38:55;22.40;58.30
27188;DHT22;14708;50.872;5.306;2023-03-01T15:41:28;22.40;58.00
27188;DHT22;14708;50.872;5.306;2023-03-01T15:43:56;22.60;57.70
27188;DHT22;14708;50.872;5.306;2023-03-01T15:49:18;22.80;57.20
27188;DHT22;14708;50.872;5.306;2023-03-01T15:51:52;22.90;57.00
27188;DHT22;14708;50.872;5.306;2023-03-01T15:54:24;22.90;56.80
27188;DHT22;14708;50.872;5.306;2023-03-01T15:56:50;22.80;57.00
27188;DHT22;14708;50.872;5.306;2023-03-01T15:59:17;22.70;57.50
27188;DHT22;14708;50.872;5.306;2023-03-01T16:01:44;22.60;57.90
27188;DHT22;14708;50.872;5.306;2023-03-01T16:04:13;22.50;58.00
27188;DHT22;14708;50.872;5.306;2023-03-01T16:06:46;22.40;57.70
27188;DHT22;14708;50.872;5.306;2023-03-01T16:22:46;22.20;57.10
27188;DHT22;14708;50.872;5.306;2023-03-01T16:25:17;22.20;57.60
27188;DHT22;14708;50.872;5.306;2023-03-01T16:27:43;22.10;57.30
27188;DHT22;14708;50.872;5.306;2023-03-01T16:30:10;22.10;57.40
27188;DHT22;14708;50.872;5.306;2023-03-01T16:32:43;22.10;57.60
27188;DHT22;14708;50.872;5.306;2023-03-01T16:35:11;22.00;56.90
27188;DHT22;14708;50.872;5.306;2023-03-01T16:37:38;21.90;57.00
27188;DHT22;14708;50.872;5.306;2023-03-01T16:40:07;21.70;55.10
27188;DHT22;14708;50.872;5.306;2023-03-01T16:42:37;21.60;55.50
27188;DHT22;14708;50.872;5.306;2023-03-01T16:45:03;21.50;55.70
27188;DHT22;14708;50.872;5.306;2023-03-01T16:47:29;21.40;56.20
27188;DHT22;14708;50.872;5.306;2023-03-01T16:49:55;21.30;56.30
27188;DHT22;14708;50.872;5.306;2023-03-01T16:52:22;21.20;56.00
27188;DHT22;14708;50.872;5.306;2023-03-01T16:54:50;21.30;56.50
27188;DHT22;14708;50.872;5.306;2023-03-01T16:57:18;21.20;56.80
27188;DHT22;14708;50.872;5.306;2023-03-01T16:59:44;21.10;57.30
27188;DHT22;14708;50.872;5.306;2023-03-01T17:15:25;20.90;58.00
27188;DHT22;14708;50.872;5.306;2023-03-01T17:17:51;20.80;58.50
27188;DHT22;14708;50.872;5.306;2023-03-01T17:20:17;20.80;58.90
27188;DHT22;14708;50.872;5.306;2023-03-01T17:22:43;20.80;59.20
27188;DHT22;14708;50.872;5.306;2023-03-01T17:25:10;20.90;59.30
27188;DHT22;14708;50.872;5.306;2023-03-01T17:27:37;21.00;59.10
27188;DHT22;14708;50.872;5.306;2023-03-01T17:36:47;21.50;58.40
27188;DHT22;14708;50.872;5.306;2023-03-01T17:39:15;21.50;58.10
27188;DHT22;14708;50.872;5.306;2023-03-01T17:41:42;21.60;58.10
27188;DHT22;14708;50.872;5.306;2023-03-01T17:44:07;21.60;58.20
27188;DHT22;14708;50.872;5.306;2023-03-01T17:46:46;21.60;58.20
27188;DHT22;14708;50.872;5.306;2023-03-01T17:49:12;21.60;58.10
27188;DHT22;14708;50.872;5.306;2023-03-01T17:51:38;21.60;58.00
27188;DHT22;14708;50.872;5.306;2023-03-01T17:54:04;21.60;58.20
27188;DHT22;14708;50.872;5.306;2023-03-01T17:56:30;21.50;58.10
27188;DHT22;14708;50.872;5.306;2023-03-01T17:59:06;21.50;58.20
27188;DHT22;14708;50.872;5.306;2023-03-01T18:01:32;21.50;58.40
27188;DHT22;14708;50.872;5.306;2023-03-01T18:03:59;21.40;58.50
27188;DHT22;14708;50.872;5.306;2023-03-01T18:06:27;21.40;58.80
27188;DHT22;14708;50.872;5.306;2023-03-01T18:08:53;21.40;58.80
27188;DHT22;14708;50.872;5.306;2023-03-01T18:11:23;21.50;58.80
27188;DHT22;14708;50.872;5.306;2023-03-01T18:13:50;21.50;58.60
27188;DHT22;14708;50.872;5.306;2023-03-01T18:16:17;21.60;58.20
27188;DHT22;14708;50.872;5.306;2023-03-01T18:18:43;21.70;58.20
27188;DHT22;14708;50.872;5.306;2023-03-01T18:24:35;21.90;58.10
27188;DHT22;14708;50.872;5.306;2023-03-01T18:27:01;22.00;58.10
27188;DHT22;14708;50.872;5.306;2023-03-01T18:29:27;22.00;57.40
27188;DHT22;14708;50.872;5.306;2023-03-01T18:31:53;22.10;57.60
27188;DHT22;14708;50.872;5.306;2023-03-01T18:34:18;22.10;57.90
27188;DHT22;14708;50.872;5.306;2023-03-01T18:36:44;22.10;57.10
27188;DHT22;14708;50.872;5.306;2023-03-01T18:39:10;22.00;57.60
27188;DHT22;14708;50.872;5.306;2023-03-01T18:41:36;22.00;57.70
27188;DHT22;14708;50.872;5.306;2023-03-01T18:44:03;21.90;57.80
27188;DHT22;14708;50.872;5.306;2023-03-01T18:46:29;21.90;57.90
27188;DHT22;14708;50.872;5.306;2023-03-01T18:49:06;21.80;58.00
27188;DHT22;14708;50.872;5.306;2023-03-01T18:51:32;21.80;58.20
27188;DHT22;14708;50.872;5.306;2023-03-01T18:54:00;21.70;58.30
27188;DHT22;14708;50.872;5.306;2023-03-01T18:59:48;21.80;58.10
27188;DHT22;14708;50.872;5.306;2023-03-01T19:02:13;21.80;58.10
27188;DHT22;14708;50.872;5.306;2023-03-01T19:04:40;21.80;58.20
27188;DHT22;14708;50.872;5.306;2023-03-01T19:07:06;21.80;58.00
27188;DHT22;14708;50.872;5.306;2023-03-01T19:09:32;21.80;58.00
27188;DHT22;14708;50.872;5.306;2023-03-01T19:11:58;21.90;58.10
27188;DHT22;14708;50.872;5.306;2023-03-01T19:17:48;22.00;58.00
27188;DHT22;14708;50.872;5.306;2023-03-01T19:20:13;22.10;57.90
27188;DHT22;14708;50.872;5.306;2023-03-01T19:22:39;22.10;58.00
27188;DHT22;14708;50.872;5.306;2023-03-01T19:25:05;22.10;57.90
27188;DHT22;14708;50.872;5.306;2023-03-01T19:27:31;22.00;57.90
27188;DHT22;14708;50.872;5.306;2023-03-01T19:29:56;22.00;57.40
27188;DHT22;14708;50.872;5.306;2023-03-01T19:32:22;22.00;57.90
27188;DHT22;14708;50.872;5.306;2023-03-01T19:34:48;22.00;57.90
27188;DHT22;14708;50.872;5.306;2023-03-01T19:37:13;22.00;57.90
27188;DHT22;14708;50.872;5.306;2023-03-01T19:43:11;21.90;58.10
27188;DHT22;14708;50.872;5.306;2023-03-01T19:45:36;21.80;58.20
27188;DHT22;14708;50.872;5.306;2023-03-01T19:48:02;21.90;58.20
27188;DHT22;14708;50.872;5.306;2023-03-01T19:50:28;21.90;58.10
27188;DHT22;14708;50.872;5.306;2023-03-01T19:52:53;21.90;58.00
27188;DHT22;14708;50.872;5.306;2023-03-01T19:58:41;22.00;58.00
27188;DHT22;14708;50.872;5.306;2023-03-01T20:01:19;22.10;58.10
27188;DHT22;14708;50.872;5.306;2023-03-01T20:03:45;22.10;57.90
27188;DHT22;14708;50.872;5.306;2023-03-01T20:06:16;22.10;57.90
27188;DHT22;14708;50.872;5.306;2023-03-01T20:08:44;22.00;58.00
27188;DHT22;14708;50.872;5.306;2023-03-01T20:11:12;22.00;58.20
27188;DHT22;14708;50.872;5.306;2023-03-01T20:13:38;21.90;58.10
27188;DHT22;14708;50.872;5.306;2023-03-01T20:16:05;21.90;58.20
27188;DHT22;14708;50.872;5.306;2023-03-01T20:18:31;21.90;58.30
27188;DHT22;14708;50.872;5.306;2023-03-01T20:20:57;21.90;58.30
27188;DHT22;14708;50.872;5.306;2023-03-01T20:23:25;21.80;58.40
27188;DHT22;14708;50.872;5.306;2023-03-01T20:25:51;21.80;58.40
27188;DHT22;14708;50.872;5.306;2023-03-01T20:28:18;21.80;58.30
27188;DHT22;14708;50.872;5.306;2023-03-01T20:30:44;21.90;58.30
27188;DHT22;14708;50.872;5.306;2023-03-01T20:33:10;22.00;58.10
27188;DHT22;14708;50.872;5.306;2023-03-01T20:35:40;22.00;58.10
27188;DHT22;14708;50.872;5.306;2023-03-01T20:38:06;22.00;58.00
27188;DHT22;14708;50.872;5.306;2023-03-01T20:40:31;22.10;58.00
27188;DHT22;14708;50.872;5.306;2023-03-01T20:43:00;22.10;58.00
27188;DHT22;14708;50.872;5.306;2023-03-01T20:45:28;22.10;57.90
27188;DHT22;14708;50.872;5.306;2023-03-01T20:47:54;22.10;57.90
27188;DHT22;14708;50.872;5.306;2023-03-01T20:50:20;22.10;58.00
27188;DHT22;14708;50.872;5.306;2023-03-01T20:52:46;22.00;58.00
27188;DHT22;14708;50.872;5.306;2023-03-01T20:55:12;22.00;58.60
27188;DHT22;14708;50.872;5.306;2023-03-01T20:57:37;22.00;58.10
27188;DHT22;14708;50.872;5.306;2023-03-01T21:00:05;21.90;58.20
27188;DHT22;14708;50.872;5.306;2023-03-01T21:02:31;21.90;58.40
27188;DHT22;14708;50.872;5.306;2023-03-01T21:04:56;21.80;58.40
27188;DHT22;14708;50.872;5.306;2023-03-01T21:07:22;21.80;58.40
27188;DHT22;14708;50.872;5.306;2023-03-01T21:09:48;21.90;58.50
27188;DHT22;14708;50.872;5.306;2023-03-01T21:22:23;21.90;57.20
27188;DHT22;14708;50.872;5.306;2023-03-01T21:24:50;21.80;57.30
27188;DHT22;14708;50.872;5.306;2023-03-01T21:27:16;21.80;57.60
27188;DHT22;14708;50.872;5.306;2023-03-01T21:29:44;21.70;57.60
27188;DHT22;14708;50.872;5.306;2023-03-01T21:32:11;21.60;57.80
27188;DHT22;14708;50.872;5.306;2023-03-01T21:34:37;21.50;57.70
27188;DHT22;14708;50.872;5.306;2023-03-01T21:37:04;21.50;58.10
27188;DHT22;14708;50.872;5.306;2023-03-01T21:39:30;21.40;58.00
27188;DHT22;14708;50.872;5.306;2023-03-01T21:52:15;21.10;58.20
27188;DHT22;14708;50.872;5.306;2023-03-01T21:54:41;21.00;58.40
27188;DHT22;14708;50.872;5.306;2023-03-01T21:57:06;21.00;58.50
27188;DHT22;14708;50.872;5.306;2023-03-01T21:59:32;20.90;58.50
27188;DHT22;14708;50.872;5.306;2023-03-01T22:12:03;20.70;58.70
27188;DHT22;14708;50.872;5.306;2023-03-01T22:14:30;20.60;58.70